Time;durP1;ratioP1;P1;durP2;ratioP2;P2;SDS_P1;SDS_P2;PMS_P1;PMS_P2;Temp;Humidity;BMP_temperature;BMP_pressure;BME280_temperature;BME280_humidity;BME280_pressure;Samples;Min_cycle;Max_cycle;Signal;HPM_P1;HPM_P2
2023/01/07 00:00:32;;;;;;;2.30;1.77;;;8.90;99.90;;;;;;4972345;28;20499;-72
2023/01/07 00:02:58;;;;;;;2.00;1.80;;;8.90;99.90;;;;;;4990475;28;20999;-72
2023/01/07 00:05:23;;;;;;;2.25;1.70;;;8.90;99.90;;;;;;4991916;28;20401;-73
2023/01/07 00:07:49;;;;;;;1.97;1.77;;;9.00;99.90;;;;;;4983877;28;20400;-73
2023/01/07 00:10:14;;;;;;;2.20;2.00;;;9.00;99.90;;;;;;4992209;28;20761;-73
2023/01/07 00:12:40;;;;;;;2.10;1.90;;;9.10;99.90;;;;;;4991326;28;20386;-72
2023/01/07 00:15:06;;;;;;;2.70;2.05;;;9.10;99.90;;;;;;4991568;28;20390;-72
2023/01/07 00:17:31;;;;;;;1.90;1.77;;;9.10;99.90;;;;;;4991161;28;20414;-72
2023/01/07 00:19:57;;;;;;;2.38;2.00;;;9.00;99.90;;;;;;4991628;28;20421;-72
2023/01/07 00:22:22;;;;;;;2.30;1.70;;;9.00;99.90;;;;;;4991285;28;20387;-72
2023/01/07 00:24:48;;;;;;;1.90;1.70;;;8.90;99.90;;;;;;4990935;28;20390;-73
2023/01/07 00:27:13;;;;;;;1.90;1.80;;;8.90;99.90;;;;;;4974760;28;20770;-72
2023/01/07 00:29:39;;;;;;;2.30;2.00;;;9.00;99.90;;;;;;4971897;28;20410;-72
2023/01/07 00:32:04;;;;;;;1.90;1.80;;;9.00;99.90;;;;;;4971799;28;20400;-73
2023/01/07 00:34:30;;;;;;;2.40;2.00;;;9.00;99.90;;;;;;4971165;28;20396;-73
2023/01/07 00:37:48;;;;;;;2.22;2.03;;;9.10;99.90;;;;;;4984646;28;20406;-73
2023/01/07 00:39:41;;;;;;;2.10;1.90;;;9.10;99.90;;;;;;4991036;28;20445;-73
2023/01/07 00:44:50;;;;;;;2.25;2.05;;;9.00;99.90;;;;;;4971423;28;20403;-73
2023/01/07 00:47:16;;;;;;;1.90;1.70;;;9.10;99.90;;;;;;4971709;28;20839;-73
2023/01/07 00:49:42;;;;;;;1.80;1.70;;;9.10;99.90;;;;;;4971829;28;20806;-73
2023/01/07 00:52:07;;;;;;;1.70;1.60;;;9.00;99.90;;;;;;4974358;28;20440;-71
2023/01/07 00:54:32;;;;;;;2.40;1.73;;;8.90;99.90;;;;;;4981888;28;20400;-71
2023/01/07 00:56:58;;;;;;;2.60;1.70;;;8.90;99.90;;;;;;4971498;28;20404;-72
2023/01/07 00:59:23;;;;;;;2.10;1.80;;;8.90;99.90;;;;;;4971635;28;20392;-71
2023/01/07 01:01:49;;;;;;;2.10;1.70;;;8.90;99.90;;;;;;4971566;28;20384;-71
2023/01/07 01:04:15;;;;;;;1.92;1.65;;;8.90;99.90;;;;;;4975748;28;20469;-72
2023/01/07 01:06:41;;;;;;;1.70;1.60;;;8.90;99.90;;;;;;4990957;28;20485;-72
2023/01/07 01:09:07;;;;;;;1.60;1.40;;;8.80;99.90;;;;;;4978305;28;20978;-72
2023/01/07 01:11:32;;;;;;;1.80;1.70;;;8.80;99.90;;;;;;4986578;28;20954;-72
2023/01/07 01:13:58;;;;;;;2.00;1.70;;;8.90;99.90;;;;;;4990494;28;20390;-72
2023/01/07 01:16:23;;;;;;;2.20;2.00;;;8.80;99.90;;;;;;4990849;28;20406;-72
2023/01/07 01:18:49;;;;;;;1.57;1.47;;;8.80;99.90;;;;;;4991964;28;21007;-71
2023/01/07 01:23:54;;;;;;;1.93;1.60;;;8.90;99.90;;;;;;5031783;28;20423;-73
2023/01/07 01:26:19;;;;;;;1.60;1.50;;;8.90;99.90;;;;;;5034432;28;20382;-72
2023/01/07 01:28:45;;;;;;;2.20;1.83;;;8.90;99.90;;;;;;5034311;28;20509;-73
2023/01/07 01:31:11;;;;;;;1.67;1.57;;;8.90;99.90;;;;;;5034181;28;20379;-71
2023/01/07 01:33:36;;;;;;;1.73;1.55;;;8.80;99.90;;;;;;5033132;28;20460;-73
2023/01/07 01:36:08;;;;;;;1.90;1.50;;;8.90;99.90;;;;;;5034000;28;20402;-73
2023/01/07 01:38:34;;;;;;;2.90;1.45;;;8.90;99.90;;;;;;5016299;28;20415;-73
2023/01/07 01:41:00;;;;;;;2.08;1.60;;;8.90;99.90;;;;;;5033650;28;20809;-73
2023/01/07 01:43:34;;;;;;;1.52;1.42;;;8.90;99.90;;;;;;5032958;28;20398;-73
2023/01/07 01:46:12;;;;;;;1.50;1.40;;;9.00;99.90;;;;;;5033900;28;20395;-73
2023/01/07 01:48:42;;;;;;;1.90;1.50;;;9.00;99.90;;;;;;5033747;28;20421;-73
2023/01/07 01:51:09;;;;;;;1.60;1.50;;;9.00;99.90;;;;;;5033698;28;20478;-72
2023/01/07 01:53:35;;;;;;;2.10;1.50;;;9.10;99.90;;;;;;5032735;28;20407;-73
2023/01/07 01:56:16;;;;;;;1.60;1.40;;;9.00;99.90;;;;;;5033743;28;20409;-73
2023/01/07 01:58:46;;;;;;;1.70;1.40;;;9.00;99.90;;;;;;5033811;28;20804;-73
2023/01/07 02:01:12;;;;;;;1.88;1.30;;;9.10;99.90;;;;;;5033696;28;20754;-72
2023/01/07 02:03:38;;;;;;;1.75;1.50;;;9.00;99.90;;;;;;5032618;28;20848;-72
2023/01/07 02:06:04;;;;;;;2.10;1.10;;;9.00;99.90;;;;;;5033369;28;20434;-73
2023/01/07 02:08:30;;;;;;;2.95;1.40;;;9.00;99.90;;;;;;5033407;28;20398;-73
2023/01/07 02:11:32;;;;;;;1.50;1.40;;;9.10;99.90;;;;;;5033383;28;20844;-72
2023/01/07 02:14:03;;;;;;;1.80;1.20;;;9.10;99.90;;;;;;5032715;28;20474;-73
2023/01/07 02:16:53;;;;;;;1.65;1.50;;;8.90;99.90;;;;;;5033123;28;20407;-73
2023/01/07 02:19:30;;;;;;;1.20;1.10;;;9.00;99.90;;;;;;5033353;28;20401;-72
2023/01/07 02:22:07;;;;;;;1.67;1.50;;;9.00;99.90;;;;;;5032386;28;20474;-72
2023/01/07 02:24:53;;;;;;;1.50;1.40;;;9.00;99.90;;;;;;5031832;28;22226;-72
2023/01/07 02:27:34;;;;;;;2.30;1.47;;;8.90;99.90;;;;;;5033166;28;20383;-72
2023/01/07 02:30:14;;;;;;;1.80;1.30;;;8.90;99.90;;;;;;5032302;28;20378;-73
2023/01/07 02:32:56;;;;;;;1.42;1.25;;;8.90;99.90;;;;;;5031978;28;20449;-72
2023/01/07 02:35:27;;;;;;;1.30;1.20;;;9.00;99.90;;;;;;5021995;28;20395;-73
2023/01/07 02:38:26;;;;;;;1.63;1.38;;;9.00;99.90;;;;;;5032835;28;20402;-72
2023/01/07 02:41:43;;;;;;;1.48;1.38;;;9.00;99.90;;;;;;5032749;28;20399;-72
2023/01/07 02:44:33;;;;;;;1.70;1.10;;;9.00;99.90;;;;;;5019152;28;20387;-73
2023/01/07 02:47:24;;;;;;;1.47;1.00;;;9.00;99.90;;;;;;5032484;28;20398;-73
2023/01/07 02:49:51;;;;;;;1.45;1.20;;;9.00;99.90;;;;;;5033143;28;20822;-73
2023/01/07 02:52:29;;;;;;;1.98;1.20;;;8.90;99.90;;;;;;5032547;28;20387;-73
2023/01/07 02:55:00;;;;;;;1.20;0.95;;;9.00;99.90;;;;;;5032330;28;20401;-72
2023/01/07 02:57:32;;;;;;;1.70;1.10;;;8.90;99.90;;;;;;5031965;28;20453;-73
2023/01/07 03:00:28;;;;;;;1.58;1.25;;;8.90;99.90;;;;;;5032589;28;20448;-73
2023/01/07 03:03:14;;;;;;;1.23;0.98;;;8.90;99.90;;;;;;5031710;28;20394;-72
2023/01/07 03:06:16;;;;;;;2.03;1.10;;;9.00;99.90;;;;;;5032333;28;20911;-73
2023/01/07 03:09:01;;;;;;;1.50;1.20;;;9.00;99.90;;;;;;5013225;28;20533;-73
2023/01/07 03:11:36;;;;;;;1.65;1.30;;;9.00;99.90;;;;;;5032414;28;20437;-73
2023/01/07 03:14:08;;;;;;;1.40;1.30;;;9.00;99.90;;;;;;5029427;28;20425;-73
2023/01/07 03:16:40;;;;;;;1.35;1.20;;;9.00;99.90;;;;;;5032034;28;20407;-73
2023/01/07 03:19:10;;;;;;;2.78;1.30;;;8.90;99.90;;;;;;5032247;28;20393;-73
2023/01/07 03:21:36;;;;;;;1.87;1.60;;;9.10;99.90;;;;;;5031891;28;20386;-72
2023/01/07 03:24:04;;;;;;;1.80;1.70;;;9.10;99.90;;;;;;5031229;28;20735;-73
2023/01/07 03:26:33;;;;;;;3.15;1.70;;;9.10;99.90;;;;;;5031706;28;20457;-72
2023/01/07 03:29:02;;;;;;;2.70;1.77;;;9.10;99.90;;;;;;5032137;28;20773;-73
2023/01/07 03:31:29;;;;;;;2.13;1.70;;;9.10;99.90;;;;;;5031935;28;20398;-73
2023/01/07 03:34:00;;;;;;;4.05;2.40;;;9.10;99.90;;;;;;5031168;28;20762;-73
2023/01/07 03:36:48;;;;;;;3.38;2.25;;;9.00;99.90;;;;;;5023884;28;20489;-72
2023/01/07 03:39:15;;;;;;;3.15;2.28;;;9.00;99.90;;;;;;5031527;28;20786;-72
2023/01/07 03:44:25;;;;;;;3.60;2.97;;;9.00;99.90;;;;;;5030795;28;20398;-73
2023/01/07 03:46:51;;;;;;;4.25;3.03;;;9.10;99.90;;;;;;5031527;28;20395;-73
2023/01/07 03:49:17;;;;;;;4.72;3.40;;;9.10;99.90;;;;;;5031630;28;20842;-73
2023/01/07 03:51:44;;;;;;;4.10;2.88;;;9.10;99.90;;;;;;5031529;28;20381;-73
2023/01/07 03:54:10;;;;;;;4.00;3.13;;;9.00;99.90;;;;;;5030375;28;20406;-72
2023/01/07 03:56:35;;;;;;;3.77;2.37;;;9.00;99.90;;;;;;5031329;28;20407;-73
2023/01/07 03:59:01;;;;;;;5.10;2.77;;;9.10;99.90;;;;;;5031444;28;20379;-72
2023/01/07 04:01:26;;;;;;;4.15;2.80;;;9.00;99.90;;;;;;5031405;28;20387;-72
2023/01/07 04:03:52;;;;;;;3.80;2.40;;;9.00;99.90;;;;;;5030470;28;20411;-73
2023/01/07 04:06:18;;;;;;;3.22;2.40;;;9.00;99.90;;;;;;5031143;28;21172;-73
2023/01/07 04:08:43;;;;;;;3.17;2.50;;;9.00;99.90;;;;;;5030918;28;20409;-73
2023/01/07 04:11:09;;;;;;;3.23;2.40;;;9.00;99.90;;;;;;5031285;28;20405;-73
2023/01/07 04:13:34;;;;;;;3.20;2.40;;;9.10;99.90;;;;;;5030337;28;20430;-73
2023/01/07 04:16:00;;;;;;;3.83;2.50;;;9.10;99.90;;;;;;5031171;28;20403;-73
2023/01/07 04:18:25;;;;;;;3.07;2.67;;;9.00;99.90;;;;;;5030891;28;20391;-73
2023/01/07 04:20:51;;;;;;;3.60;2.50;;;9.00;99.90;;;;;;5030849;28;20391;-72
2023/01/07 04:23:16;;;;;;;2.87;2.50;;;9.00;99.90;;;;;;5030025;28;20402;-72
2023/01/07 04:25:46;;;;;;;3.40;2.50;;;9.00;99.90;;;;;;5030734;28;20730;-72
2023/01/07 04:28:11;;;;;;;3.80;2.70;;;8.90;99.90;;;;;;5030964;28;20414;-73
2023/01/07 04:30:37;;;;;;;3.33;2.00;;;8.90;99.90;;;;;;5025459;28;20441;-73
2023/01/07 04:33:03;;;;;;;4.00;2.50;;;8.90;99.90;;;;;;5029752;28;20387;-73
2023/01/07 04:35:29;;;;;;;3.20;2.17;;;8.90;99.90;;;;;;5030626;28;20395;-72
2023/01/07 04:37:54;;;;;;;2.60;2.20;;;8.90;99.90;;;;;;5030877;28;20464;-73
2023/01/07 04:40:20;;;;;;;2.60;1.88;;;8.80;99.90;;;;;;5030793;28;20437;-73
2023/01/07 04:42:45;;;;;;;3.17;2.20;;;8.80;99.90;;;;;;5029953;28;20379;-73
2023/01/07 04:45:11;;;;;;;2.90;2.30;;;8.80;99.90;;;;;;5030201;28;20407;-73
2023/01/07 04:47:36;;;;;;;2.67;2.17;;;8.80;99.90;;;;;;5030722;28;21060;-72
2023/01/07 04:50:02;;;;;;;3.83;2.30;;;8.80;99.90;;;;;;5030671;28;20394;-72
2023/01/07 04:52:28;;;;;;;2.40;2.08;;;8.80;99.90;;;;;;5030313;28;20387;-73
2023/01/07 04:54:53;;;;;;;1.60;1.30;;;8.80;99.90;;;;;;5029566;28;20403;-72
2023/01/07 04:57:19;;;;;;;4.30;1.60;;;8.90;99.90;;;;;;5030358;28;20406;-72
2023/01/07 04:59:44;;;;;;;2.10;1.90;;;8.80;99.90;;;;;;5030549;28;20398;-72
2023/01/07 05:02:10;;;;;;;2.22;1.70;;;8.90;99.90;;;;;;5030456;28;20398;-72
2023/01/07 05:04:35;;;;;;;2.10;1.60;;;8.80;99.90;;;;;;5012079;28;20439;-73
2023/01/07 05:07:01;;;;;;;1.70;1.30;;;8.80;99.90;;;;;;5030433;28;20425;-72
2023/01/07 05:09:26;;;;;;;1.70;1.30;;;8.70;99.90;;;;;;5030290;28;20399;-72
2023/01/07 05:11:52;;;;;;;1.90;1.40;;;8.70;99.90;;;;;;5030416;28;20387;-73
2023/01/07 05:14:17;;;;;;;2.67;1.10;;;8.70;99.90;;;;;;5029426;28;20486;-73
2023/01/07 05:16:43;;;;;;;2.63;1.30;;;8.70;99.90;;;;;;5030325;28;20439;-71
2023/01/07 05:19:10;;;;;;;1.60;1.10;;;8.80;99.90;;;;;;5029011;28;20467;-73
2023/01/07 05:21:36;;;;;;;1.10;1.00;;;8.80;99.90;;;;;;5030157;28;20375;-73
2023/01/07 05:24:01;;;;;;;1.27;1.17;;;8.80;99.90;;;;;;5029224;28;20407;-73
2023/01/07 05:26:27;;;;;;;1.70;1.10;;;8.70;99.90;;;;;;5030440;28;20383;-74
2023/01/07 05:28:52;;;;;;;1.47;1.10;;;8.70;99.90;;;;;;5030420;28;20906;-72
2023/01/07 05:31:19;;;;;;;1.73;1.37;;;8.70;99.90;;;;;;5030288;28;20383;-72
2023/01/07 05:33:45;;;;;;;1.90;1.40;;;8.70;99.90;;;;;;5029283;28;20486;-72
2023/01/07 05:36:11;;;;;;;1.50;1.40;;;8.70;99.90;;;;;;5028905;28;20514;-73
2023/01/07 05:38:37;;;;;;;1.70;1.60;;;8.70;99.90;;;;;;5030348;28;20803;-72
2023/01/07 05:41:03;;;;;;;1.70;1.50;;;8.70;99.90;;;;;;5030343;28;20479;-73
2023/01/07 05:43:28;;;;;;;1.73;1.40;;;8.70;99.90;;;;;;5028955;28;20485;-73
2023/01/07 05:45:54;;;;;;;1.80;1.20;;;8.60;99.90;;;;;;5029699;28;20773;-73
2023/01/07 05:48:20;;;;;;;2.30;1.30;;;8.60;99.90;;;;;;5029142;28;20968;-73
2023/01/07 05:50:46;;;;;;;2.10;1.20;;;8.70;99.90;;;;;;5029978;28;20729;-73
2023/01/07 05:53:12;;;;;;;2.23;1.10;;;8.70;99.90;;;;;;5029523;28;20437;-73
2023/01/07 05:55:38;;;;;;;1.90;1.10;;;8.60;99.90;;;;;;5030500;28;20883;-74
2023/01/07 05:58:04;;;;;;;4.80;1.40;;;8.60;99.90;;;;;;5030155;28;20426;-73
2023/01/07 06:00:30;;;;;;;1.30;1.20;;;8.60;99.90;;;;;;5029792;28;20502;-74
2023/01/07 06:02:55;;;;;;;1.30;1.20;;;8.60;99.90;;;;;;5029258;28;20494;-73
2023/01/07 06:05:21;;;;;;;1.75;1.15;;;8.60;99.90;;;;;;5031932;28;20418;-74
2023/01/07 06:07:47;;;;;;;1.05;0.90;;;8.60;99.90;;;;;;5031993;28;20436;-73
2023/01/07 06:10:13;;;;;;;2.53;1.30;;;8.60;99.90;;;;;;4996278;28;20755;-73
2023/01/07 06:12:38;;;;;;;1.80;1.20;;;8.50;99.90;;;;;;5013123;28;20411;-74
2023/01/07 06:15:08;;;;;;;1.37;1.20;;;8.60;99.90;;;;;;5017216;28;20773;-74
2023/01/07 06:17:34;;;;;;;1.58;1.20;;;8.60;99.90;;;;;;5033507;28;20797;-73
2023/01/07 06:19:59;;;;;;;1.30;1.10;;;8.60;99.90;;;;;;5033400;28;20387;-73
2023/01/07 06:22:25;;;;;;;1.90;1.20;;;8.60;99.90;;;;;;5032858;28;20398;-74
2023/01/07 06:24:51;;;;;;;2.30;1.20;;;8.50;99.90;;;;;;5032811;28;20538;-74
2023/01/07 06:27:16;;;;;;;3.22;1.30;;;8.50;99.90;;;;;;5033414;28;20390;-74
2023/01/07 06:29:42;;;;;;;1.40;1.10;;;8.40;99.90;;;;;;5033118;28;20875;-73
2023/01/07 06:32:08;;;;;;;1.30;1.20;;;8.50;99.90;;;;;;5032810;28;20398;-74
2023/01/07 06:34:34;;;;;;;1.73;1.25;;;8.50;99.90;;;;;;5032520;28;20401;-74
2023/01/07 06:36:59;;;;;;;3.00;1.20;;;8.50;99.90;;;;;;5033043;28;20869;-74
2023/01/07 06:39:25;;;;;;;1.50;1.40;;;8.60;99.90;;;;;;5033145;28;20952;-74
2023/01/07 06:41:50;;;;;;;1.45;0.93;;;8.50;99.90;;;;;;5032750;28;20387;-73
2023/01/07 06:44:16;;;;;;;0.85;0.85;;;8.50;99.90;;;;;;5032342;28;20831;-74
2023/01/07 06:46:41;;;;;;;1.67;0.90;;;8.50;99.90;;;;;;5032639;28;20433;-74
2023/01/07 06:49:07;;;;;;;1.20;1.10;;;8.50;99.90;;;;;;5033039;28;20808;-74
2023/01/07 06:51:32;;;;;;;2.23;0.80;;;8.50;99.90;;;;;;5032928;28;20874;-75
2023/01/07 06:53:58;;;;;;;1.00;0.90;;;8.50;99.90;;;;;;5030807;28;20757;-74
2023/01/07 06:56:23;;;;;;;1.17;1.08;;;8.50;99.90;;;;;;5032770;28;20410;-74
2023/01/07 06:58:49;;;;;;;2.70;1.20;;;8.40;99.90;;;;;;5032806;28;20891;-74
2023/01/07 07:01:14;;;;;;;1.30;1.20;;;8.30;99.90;;;;;;5032825;28;20391;-74
2023/01/07 07:03:40;;;;;;;1.20;1.10;;;8.30;99.90;;;;;;5031779;28;20422;-73
2023/01/07 07:06:06;;;;;;;2.00;1.13;;;8.20;99.90;;;;;;5032598;28;20395;-72
2023/01/07 07:08:32;;;;;;;1.30;1.10;;;8.20;99.90;;;;;;5032771;28;20396;-72
2023/01/07 07:10:57;;;;;;;1.97;1.17;;;8.10;99.90;;;;;;5033087;28;20393;-73
2023/01/07 07:13:23;;;;;;;1.70;1.10;;;8.10;99.90;;;;;;5031589;28;20405;-73
2023/01/07 07:15:49;;;;;;;2.10;1.20;;;7.90;99.90;;;;;;5032023;28;20414;-73
2023/01/07 07:18:15;;;;;;;1.67;1.50;;;7.80;99.90;;;;;;5032067;28;20456;-73
2023/01/07 07:20:41;;;;;;;1.60;1.40;;;7.80;99.90;;;;;;5032091;28;20429;-73
2023/01/07 07:23:06;;;;;;;1.53;1.37;;;7.70;99.90;;;;;;5033220;22;20467;-72
2023/01/07 07:25:32;;;;;;;1.70;1.60;;;7.70;99.90;;;;;;5012454;28;20381;-72
2023/01/07 07:27:57;;;;;;;2.00;1.40;;;7.70;99.90;;;;;;5012494;28;20389;-72
2023/01/07 07:30:23;;;;;;;1.67;1.40;;;7.70;99.90;;;;;;5011936;28;20389;-71
2023/01/07 07:32:48;;;;;;;1.43;1.20;;;7.70;99.90;;;;;;5010961;28;20396;-72
2023/01/07 07:35:14;;;;;;;1.43;1.33;;;7.70;99.90;;;;;;5012336;28;20385;-72
2023/01/07 07:37:40;;;;;;;1.50;1.40;;;7.60;99.90;;;;;;5012170;28;20415;-72
2023/01/07 07:40:07;;;;;;;2.70;1.40;;;7.60;99.90;;;;;;5012334;28;20519;-71
2023/01/07 07:42:33;;;;;;;1.90;1.80;;;7.60;99.90;;;;;;5006321;28;20398;-72
2023/01/07 07:44:58;;;;;;;2.38;1.60;;;7.60;99.90;;;;;;4992605;28;20387;-72
2023/01/07 07:47:24;;;;;;;1.58;1.40;;;7.50;99.90;;;;;;5000628;28;20483;-72
2023/01/07 07:49:50;;;;;;;1.50;1.40;;;7.50;99.90;;;;;;5012436;28;20392;-72
2023/01/07 07:52:16;;;;;;;2.60;1.63;;;7.50;99.90;;;;;;4994418;28;20401;-72
2023/01/07 07:54:41;;;;;;;1.40;1.30;;;7.30;99.90;;;;;;5011561;28;20397;-73
2023/01/07 07:57:07;;;;;;;2.40;1.50;;;7.30;99.90;;;;;;5006793;28;20492;-71
2023/01/07 07:59:32;;;;;;;1.40;1.30;;;7.20;99.90;;;;;;4992476;28;20868;-72
2023/01/07 08:01:58;;;;;;;1.48;1.38;;;7.30;99.90;;;;;;4992967;28;20461;-72
2023/01/07 08:04:24;;;;;;;2.30;1.70;;;7.30;99.90;;;;;;4991827;28;20399;-72
2023/01/07 08:06:49;;;;;;;1.65;1.45;;;7.30;99.90;;;;;;4999997;28;20479;-71
2023/01/07 08:09:15;;;;;;;1.40;1.30;;;7.30;99.90;;;;;;5011645;28;20933;-72
2023/01/07 08:11:40;;;;;;;1.50;1.40;;;7.20;99.90;;;;;;5011629;28;20795;-72
2023/01/07 08:14:06;;;;;;;2.17;1.53;;;7.20;99.90;;;;;;5010762;28;20428;-72
2023/01/07 08:16:31;;;;;;;2.00;1.80;;;7.20;99.90;;;;;;5010698;28;20484;-72
2023/01/07 08:18:57;;;;;;;1.43;1.33;;;7.10;99.90;;;;;;5001326;28;20402;-72
2023/01/07 08:21:22;;;;;;;2.00;1.40;;;7.10;99.90;;;;;;4974503;28;21149;-72
2023/01/07 08:23:48;;;;;;;2.10;1.45;;;7.10;99.90;;;;;;4991085;28;20838;-72
2023/01/07 08:26:13;;;;;;;1.50;1.40;;;7.20;99.90;;;;;;4991754;28;20400;-72
2023/01/07 08:28:39;;;;;;;1.90;1.77;;;7.20;99.90;;;;;;4997321;28;20405;-74
2023/01/07 08:31:06;;;;;;;1.90;1.43;;;7.30;99.90;;;;;;5011711;28;20955;-72
2023/01/07 08:33:36;;;;;;;1.92;1.70;;;7.40;99.90;;;;;;5010626;28;20385;-71
2023/01/07 08:36:03;;;;;;;2.30;1.70;;;7.40;99.90;;;;;;5011467;28;20427;-71
2023/01/07 08:38:30;;;;;;;2.30;1.80;;;7.40;99.90;;;;;;5009212;28;20408;-72
2023/01/07 08:40:56;;;;;;;2.30;2.05;;;7.50;99.90;;;;;;4991562;28;20403;-72
2023/01/07 08:43:23;;;;;;;1.80;1.55;;;7.50;99.90;;;;;;4973185;28;20452;-72
2023/01/07 08:45:49;;;;;;;2.05;1.73;;;7.50;99.90;;;;;;4991865;28;20383;-72
2023/01/07 08:48:15;;;;;;;3.13;2.10;;;7.60;99.90;;;;;;4991947;28;20378;-73
2023/01/07 08:50:40;;;;;;;1.98;1.65;;;7.60;99.90;;;;;;5010010;28;20760;-73
2023/01/07 08:53:06;;;;;;;2.10;1.80;;;7.60;99.90;;;;;;5010107;28;20385;-73
2023/01/07 08:55:31;;;;;;;2.00;1.50;;;7.60;99.90;;;;;;5005339;28;20766;-73
2023/01/07 08:57:57;;;;;;;1.90;1.60;;;7.60;99.90;;;;;;4991230;28;20414;-73
2023/01/07 09:00:23;;;;;;;2.00;1.45;;;7.60;99.90;;;;;;4991367;28;20761;-73
2023/01/07 09:02:48;;;;;;;1.70;1.50;;;7.70;99.80;;;;;;4973268;28;20757;-73
2023/01/07 09:05:14;;;;;;;1.90;1.70;;;7.80;95.20;;;;;;4993469;28;20412;-73
2023/01/07 09:07:40;;;;;;;2.00;1.80;;;8.00;78.60;;;;;;5010845;28;20392;-73
2023/01/07 09:10:06;;;;;;;2.25;1.70;;;8.00;52.60;;;;;;5010827;28;20491;-73
2023/01/07 09:12:32;;;;;;;2.50;1.73;;;8.10;20.30;;;;;;5009345;28;20401;-73
2023/01/07 09:14:57;;;;;;;2.10;1.40;;;8.10;17.10;;;;;;5012936;28;20451;-73
2023/01/07 09:17:23;;;;;;;2.30;1.60;;;8.10;6.00;;;;;;5012560;28;20472;-73
2023/01/07 09:19:48;;;;;;;1.67;1.58;;;8.20;2.00;;;;;;5014152;28;20396;-72
2023/01/07 09:22:14;;;;;;;1.60;1.40;;;8.10;1.00;;;;;;5012825;28;20491;-72
2023/01/07 09:24:40;;;;;;;1.63;1.52;;;8.30;1.00;;;;;;4994302;28;20466;-72
2023/01/07 09:27:05;;;;;;;3.15;1.70;;;8.40;1.00;;;;;;4992153;28;20489;-72
2023/01/07 09:29:31;;;;;;;2.20;1.70;;;8.50;1.00;;;;;;4991494;28;20444;-73
2023/01/07 09:31:56;;;;;;;2.10;1.60;;;8.50;1.00;;;;;;4991544;28;20382;-72
2023/01/07 09:34:22;;;;;;;1.70;1.40;;;8.50;1.00;;;;;;4992197;28;20390;-73
2023/01/07 09:36:47;;;;;;;1.83;1.67;;;8.60;1.00;;;;;;5007129;28;20509;-73
2023/01/07 09:39:13;;;;;;;1.63;1.40;;;8.60;1.00;;;;;;4991296;28;20502;-73
2023/01/07 09:42:01;;;;;;;2.10;1.70;;;8.80;1.00;;;;;;4994770;28;20401;-72
2023/01/07 09:44:46;;;;;;;2.10;1.80;;;8.80;1.00;;;;;;4994127;28;20379;-72
2023/01/07 09:47:15;;;;;;;2.00;1.80;;;8.90;1.00;;;;;;5000025;28;20453;-73
2023/01/07 09:49:43;;;;;;;2.50;1.60;;;9.00;1.00;;;;;;5014327;28;20421;-72
2023/01/07 09:52:21;;;;;;;1.70;1.60;;;9.00;1.00;;;;;;4996356;28;20427;-72
2023/01/07 09:54:51;;;;;;;2.00;1.60;;;9.10;1.00;;;;;;5013642;28;20396;-72
2023/01/07 09:57:17;;;;;;;2.22;1.27;;;9.10;1.00;;;;;;5013659;28;20879;-72
2023/01/07 09:59:44;;;;;;;2.00;1.77;;;9.20;1.00;;;;;;5014088;28;20385;-72
2023/01/07 10:02:37;;;;;;;1.83;1.70;;;9.30;1.00;;;;;;5014007;28;20424;-72
2023/01/07 10:05:14;;;;;;;2.00;1.70;;;9.40;1.00;;;;;;5013437;28;20385;-72
2023/01/07 10:07:55;;;;;;;1.88;1.77;;;9.50;99.90;;;;;;5013809;28;20384;-73
2023/01/07 10:10:56;;;;;;;1.60;1.50;;;9.50;99.90;;;;;;5013230;28;20492;-72
2023/01/07 10:13:50;;;;;;;1.90;1.80;;;9.60;99.90;;;;;;5012967;28;20400;-72
2023/01/07 10:16:34;;;;;;;2.10;1.60;;;9.60;99.90;;;;;;5009616;28;20416;-71
2023/01/07 10:19:33;;;;;;;1.80;1.60;;;9.70;99.90;;;;;;5004083;28;20604;-71
2023/01/07 10:22:10;;;;;;;3.25;1.60;;;9.80;99.90;;;;;;5009152;28;20388;-72
2023/01/07 10:24:41;;;;;;;2.37;1.80;;;9.90;99.90;;;;;;5007893;28;20404;-73
2023/01/07 10:27:12;;;;;;;2.03;1.83;;;9.90;99.90;;;;;;5011037;28;20459;-71
2023/01/07 10:29:49;;;;;;;2.20;2.00;;;10.10;1.00;;;;;;5013431;28;20479;-71
2023/01/07 10:32:18;;;;;;;2.20;2.00;;;10.10;85.30;;;;;;4995835;28;20392;-71
2023/01/07 10:34:55;;;;;;;1.80;1.70;;;10.20;1.00;;;;;;5011939;28;20934;-72
2023/01/07 10:37:36;;;;;;;1.63;1.50;;;10.40;1.00;;;;;;5013298;28;20455;-73
2023/01/07 10:40:42;;;;;;;1.88;1.70;;;10.50;1.00;;;;;;4996372;28;20403;-72
2023/01/07 10:43:16;;;;;;;2.28;1.70;;;10.60;99.90;;;;;;4975315;28;20386;-72
2023/01/07 10:46:07;;;;;;;2.10;1.77;;;10.80;99.90;;;;;;4993642;28;20386;-72
2023/01/07 10:48:58;;;;;;;1.80;1.67;;;10.80;1.00;;;;;;4996912;28;20458;-72
2023/01/07 10:51:29;;;;;;;2.20;2.00;;;10.90;99.90;;;;;;4993835;28;20419;-72
2023/01/07 10:54:06;;;;;;;1.92;1.70;;;10.90;99.90;;;;;;5012144;28;20476;-72
2023/01/07 10:56:40;;;;;;;2.35;2.00;;;11.10;90.20;;;;;;5012909;28;20471;-73
2023/01/07 10:59:11;;;;;;;2.05;1.80;;;11.10;1.00;;;;;;5012941;28;20381;-73
2023/01/07 11:01:39;;;;;;;2.15;1.65;;;11.20;1.00;;;;;;5007956;28;20754;-73
2023/01/07 11:04:15;;;;;;;1.90;1.80;;;11.50;99.90;;;;;;4993197;28;20393;-72
2023/01/07 11:06:58;;;;;;;1.95;1.75;;;11.60;1.00;;;;;;5012872;28;20775;-72
2023/01/07 11:09:36;;;;;;;2.10;1.90;;;11.70;1.00;;;;;;5006842;28;20759;-73
2023/01/07 11:12:19;;;;;;;1.60;1.50;;;11.80;99.90;;;;;;5012840;28;20496;-73
2023/01/07 11:14:46;;;;;;;2.55;1.90;;;12.00;99.90;;;;;;5011479;28;20403;-73
2023/01/07 11:17:12;;;;;;;1.92;1.73;;;12.30;1.00;;;;;;5012671;28;20400;-73
2023/01/07 11:19:43;;;;;;;2.17;1.33;;;12.50;99.90;;;;;;5012399;28;20389;-73
2023/01/07 11:22:24;;;;;;;1.83;1.60;;;12.50;99.90;;;;;;4994439;28;20435;-73
2023/01/07 11:24:50;;;;;;;1.80;1.60;;;12.90;99.90;;;;;;5012007;28;20389;-73
2023/01/07 11:27:17;;;;;;;3.80;1.60;;;13.30;27.50;;;;;;5012552;28;20430;-73
2023/01/07 11:30:02;;;;;;;1.30;1.20;;;14.40;99.90;;;;;;5012371;28;20913;-73
2023/01/07 11:32:39;;;;;;;2.50;1.50;;;14.70;84.90;;;;;;4992392;28;21129;-74
2023/01/07 11:35:06;;;;;;;8.57;2.40;;;14.70;1.00;;;;;;4992687;28;20924;-74
2023/01/07 11:37:38;;;;;;;9.70;2.40;;;14.50;7.50;;;;;;4992504;28;20402;-71
2023/01/07 11:40:13;;;;;;;7.47;1.90;;;14.90;1.00;;;;;;4975083;28;20546;-74
2023/01/07 11:42:54;;;;;;;2.63;1.50;;;15.40;1.00;;;;;;4991661;28;20390;-74
2023/01/07 11:45:27;;;;;;;1.60;1.40;;;15.80;1.00;;;;;;5002544;28;20393;-74
2023/01/07 11:48:08;;;;;;;1.67;1.58;;;15.60;1.00;;;;;;4995109;28;20825;-74
2023/01/07 11:50:55;;;;;;;1.75;1.65;;;15.70;1.00;;;;;;4993634;28;20402;-74
2023/01/07 11:53:43;;;;;;;1.75;1.65;;;15.70;1.00;;;;;;5010939;28;21194;-72
2023/01/07 11:56:20;;;;;;;1.75;1.65;;;16.40;1.00;;;;;;5012055;28;20418;-73
2023/01/07 11:58:49;;;;;;;1.50;1.40;;;16.30;99.90;;;;;;5011868;28;20428;-73
2023/01/07 12:01:16;;;;;;;1.50;1.40;;;15.80;99.90;;;;;;4993882;28;20393;-72
2023/01/07 12:03:50;;;;;;;1.50;1.40;;;15.80;1.00;;;;;;5009672;28;20402;-72
2023/01/07 12:06:23;;;;;;;1.40;1.30;;;16.20;1.00;;;;;;4994280;28;20389;-73
2023/01/07 12:09:12;;;;;;;1.52;1.42;;;16.90;99.90;;;;;;5011262;28;20818;-72
2023/01/07 12:11:40;;;;;;;1.70;1.60;;;17.10;99.90;;;;;;5010868;28;20405;-72
2023/01/07 12:14:16;;;;;;;1.70;1.60;;;17.40;99.90;;;;;;4992853;28;20393;-72
2023/01/07 12:16:43;;;;;;;2.30;1.80;;;16.90;99.90;;;;;;5011607;28;20407;-73
2023/01/07 12:19:31;;;;;;;1.70;1.60;;;17.00;99.90;;;;;;5011388;28;20883;-73
2023/01/07 12:22:29;;;;;;;1.83;1.52;;;17.50;99.90;;;;;;4999082;28;20400;-72
2023/01/07 12:25:02;;;;;;;1.80;1.65;;;17.00;99.90;;;;;;5011394;28;20740;-73
2023/01/07 12:27:45;;;;;;;1.33;1.23;;;17.60;99.90;;;;;;5011273;28;20392;-73
2023/01/07 12:30:51;;;;;;;2.00;1.50;;;18.20;99.90;;;;;;5011252;28;20393;-73
2023/01/07 12:33:25;;;;;;;1.70;1.40;;;17.90;99.90;;;;;;4992581;28;20412;-73
2023/01/07 12:35:55;;;;;;;1.60;1.38;;;17.70;99.90;;;;;;5011313;28;20416;-73
2023/01/07 12:38:26;;;;;;;1.88;1.50;;;17.40;99.90;;;;;;5011173;28;20397;-73
2023/01/07 12:41:09;;;;;;;1.60;1.30;;;16.20;99.90;;;;;;4993538;28;20385;-73
2023/01/07 12:44:01;;;;;;;2.40;1.80;;;15.60;99.90;;;;;;5010335;28;20397;-73
2023/01/07 12:46:37;;;;;;;1.30;1.20;;;15.10;99.90;;;;;;5011307;28;20891;-72
2023/01/07 12:49:14;;;;;;;1.30;1.20;;;14.90;99.90;;;;;;5011054;28;20800;-72
2023/01/07 12:51:54;;;;;;;1.30;1.10;;;14.70;99.90;;;;;;5010036;28;20416;-72
2023/01/07 12:54:46;;;;;;;1.50;1.40;;;14.60;99.90;;;;;;4973157;28;20394;-72
2023/01/07 12:57:22;;;;;;;1.30;1.20;;;14.40;99.90;;;;;;4991419;28;20923;-72
2023/01/07 13:00:29;;;;;;;1.52;1.23;;;14.30;99.90;;;;;;5000035;28;20400;-72
2023/01/07 13:02:59;;;;;;;1.35;1.20;;;14.40;99.90;;;;;;4892215;29;20479;-73
2023/01/07 13:05:31;;;;;;;1.50;1.38;;;14.40;99.90;;;;;;4893208;29;20454;-73
2023/01/07 13:08:18;;;;;;;1.27;1.17;;;14.40;99.90;;;;;;4950824;28;20400;-72
2023/01/07 13:11:11;;;;;;;1.40;1.30;;;14.40;99.90;;;;;;5010201;28;20396;-73
2023/01/07 13:13:40;;;;;;;1.10;1.00;;;14.30;99.90;;;;;;4991226;28;20398;-73
2023/01/07 13:16:12;;;;;;;1.40;1.30;;;14.40;99.90;;;;;;4997118;28;20519;-73
2023/01/07 13:18:38;;;;;;;1.50;1.20;;;14.90;99.90;;;;;;4997697;28;20394;-72
2023/01/07 13:21:12;;;;;;;1.50;1.20;;;14.30;99.90;;;;;;4980445;28;20448;-73